Terminal Aerodrome Forecast
Issued by NWS Dallas/Fort Worth, TX

Home | Current Version | Previous Version | Text Only | Print | Product List | Glossary On
Versions: 1 2 3 4 5 6 7 8 9 10 11 12 13 14 15 16 17 18 19 20 21 22 23 24 25 26 27 28 29 30 31 32
000
FTUS44 KFWD 230904 AAB
TAFACT
TAF AMD
KACT 230904Z 2309/2406 14011KT P6SM OVC009
      TEMPO 2310/2313 4SM BR OVC007
     FM232000 16016KT P6SM VCSH OVC025
      TEMPO 2322/2401 3SM -TSRA BR OVC012CB
     FM240400 13010KT 2SM +RA BR OVC008=

USA.gov is the U.S. government's official web portal to all federal, state and local government web resources and services.